createdAt,value
2022-09-28T00:00:53.611Z,2.28
2022-09-28T00:02:58.682Z,0.25
2022-09-28T00:05:00.375Z,0.40
2022-09-28T00:07:01.962Z,2.13
2022-09-28T00:09:04.158Z,2.08
2022-09-28T00:11:07.582Z,1.20
2022-09-28T00:13:09.571Z,0.05
2022-09-28T00:15:11.140Z,0.38
2022-09-28T00:17:13.064Z,0.35
2022-09-28T00:19:14.885Z,0.05
2022-09-28T00:21:24.420Z,1.23
2022-09-28T00:23:25.984Z,2.13
2022-09-28T00:25:28.124Z,0.47
2022-09-28T00:27:29.635Z,0.03
2022-09-28T00:29:33.382Z,0.50
2022-09-28T00:31:35.528Z,0.68
2022-09-28T00:33:37.208Z,0.10
2022-09-28T00:35:38.859Z,0.00
2022-09-28T00:37:41.092Z,0.32
2022-09-28T00:39:43.605Z,0.43
2022-09-28T00:41:46.235Z,0.55
2022-09-28T00:43:47.807Z,0.10
2022-09-28T00:45:56.298Z,0.00
2022-09-28T00:47:59.225Z,0.82
2022-09-28T00:50:19.470Z,0.55
2022-09-28T00:52:47.727Z,0.30
2022-09-28T00:54:50.957Z,0.80
2022-09-28T00:56:52.700Z,2.55
2022-09-28T00:58:54.786Z,0.10
2022-09-28T01:00:58.294Z,0.20
2022-09-28T01:03:00.072Z,1.17
2022-09-28T01:05:04.379Z,0.05
2022-09-28T01:07:07.724Z,0.10
2022-09-28T01:09:11.066Z,0.30
2022-09-28T01:11:12.767Z,0.20
2022-09-28T01:13:15.027Z,0.57
2022-09-28T01:15:16.702Z,0.00
2022-09-28T01:17:41.448Z,0.28
2022-09-28T01:20:18.268Z,0.73
2022-09-28T01:22:35.068Z,0.00
2022-09-28T01:24:42.693Z,0.40
2022-09-28T01:27:06.141Z,1.55
2022-09-28T01:29:22.577Z,0.43
2022-09-28T01:31:27.134Z,0.35
2022-09-28T01:33:35.619Z,1.08
2022-09-28T01:35:43.309Z,0.43
2022-09-28T01:37:56.031Z,0.00
2022-09-28T01:39:59.065Z,0.20
2022-09-28T01:42:04.854Z,0.32
2022-09-28T01:44:08.900Z,0.43
2022-09-28T01:46:34.180Z,1.85
2022-09-28T01:48:41.261Z,0.00
2022-09-28T01:50:44.053Z,0.03
2022-09-28T01:52:52.691Z,0.10
2022-09-28T01:55:02.172Z,4.32
2022-09-28T01:57:15.587Z,5.43
2022-09-28T01:59:22.503Z,0.10
2022-09-28T02:01:31.330Z,0.90
2022-09-28T02:03:39.178Z,0.20
2022-09-28T02:05:43.159Z,0.10
2022-09-28T02:07:47.479Z,2.63
2022-09-28T02:10:02.991Z,0.10
2022-09-28T02:12:12.020Z,0.10
2022-09-28T02:14:15.775Z,0.13
2022-09-28T02:16:23.433Z,0.45
2022-09-28T02:18:25.093Z,0.03
2022-09-28T02:20:26.643Z,0.30
2022-09-28T02:22:33.647Z,0.00
2022-09-28T02:24:52.052Z,1.02
2022-09-28T02:26:55.673Z,0.22
2022-09-28T02:28:57.888Z,2.70
2022-09-28T02:30:59.477Z,0.10
2022-09-28T02:33:05.745Z,0.68
2022-09-28T02:35:09.879Z,0.15
2022-09-28T02:37:11.548Z,0.40
2022-09-28T02:39:17.991Z,0.10
2022-09-28T02:41:40.557Z,0.52
2022-09-28T02:44:08.165Z,0.77
2022-09-28T02:46:32.990Z,0.73
2022-09-28T02:48:55.749Z,0.00
2022-09-28T02:51:19.018Z,0.20
2022-09-28T02:53:44.568Z,0.10
2022-09-28T02:56:06.202Z,0.10
2022-09-28T02:58:26.141Z,0.57
2022-09-28T03:00:28.058Z,0.28
2022-09-28T03:03:16.946Z,0.82
2022-09-28T03:05:23.009Z,0.33
2022-09-28T03:07:40.053Z,0.40
2022-09-28T03:09:52.177Z,0.03
2022-09-28T03:11:57.283Z,0.55
2022-09-28T03:13:59.558Z,0.40
2022-09-28T03:16:12.467Z,0.50
2022-09-28T03:18:14.277Z,0.38
2022-09-28T03:20:16.066Z,0.20
2022-09-28T03:22:17.587Z,0.10
2022-09-28T03:24:19.185Z,0.00
2022-09-28T03:26:20.731Z,0.52
2022-09-28T03:28:22.767Z,0.00
2022-09-28T03:30:24.348Z,0.00
2022-09-28T03:32:25.897Z,0.10
2022-09-28T03:34:27.470Z,2.30
2022-09-28T03:36:29.031Z,0.10
2022-09-28T03:38:30.581Z,0.10
2022-09-28T03:40:32.240Z,0.47
2022-09-28T03:42:36.067Z,0.63
2022-09-28T03:44:37.598Z,0.00
2022-09-28T03:46:39.146Z,0.10
2022-09-28T03:48:40.916Z,2.17
2022-09-28T03:50:42.622Z,2.72
2022-09-28T03:52:44.164Z,0.32
2022-09-28T03:54:49.108Z,0.30
2022-09-28T03:56:51.996Z,0.52
2022-09-28T03:58:53.593Z,1.55
2022-09-28T04:00:55.182Z,0.43
2022-09-28T04:02:56.759Z,2.35
2022-09-28T04:04:58.299Z,1.35
2022-09-28T04:06:59.877Z,0.50
2022-09-28T04:09:01.452Z,0.45
2022-09-28T04:11:03.140Z,0.00
2022-09-28T04:13:04.754Z,0.10
2022-09-28T04:15:06.781Z,0.10
2022-09-28T04:17:08.375Z,1.27
2022-09-28T04:19:09.987Z,0.20
2022-09-28T04:21:13.123Z,0.52
2022-09-28T04:23:15.547Z,0.08
2022-09-28T04:25:17.212Z,0.73
2022-09-28T04:27:37.102Z,0.20
2022-09-28T04:31:44.594Z,3.65
2022-09-28T04:33:46.243Z,0.05
2022-09-28T04:35:47.796Z,1.38
2022-09-28T04:37:49.392Z,0.43
2022-09-28T04:39:50.930Z,0.20
2022-09-28T04:41:52.505Z,3.60
2022-09-28T04:43:54.054Z,9.98
2022-09-28T04:46:00.441Z,1.42
2022-09-28T04:48:02.240Z,0.55
2022-09-28T04:50:03.856Z,0.90
2022-09-28T04:52:06.257Z,0.28
2022-09-28T04:54:07.828Z,1.23
2022-09-28T04:56:14.151Z,0.43
2022-09-28T04:58:15.699Z,0.28
2022-09-28T05:00:17.379Z,1.15
2022-09-28T05:02:18.940Z,1.30
2022-09-28T05:04:25.636Z,0.15
2022-09-28T05:06:30.559Z,0.30
2022-09-28T05:08:32.096Z,0.75
2022-09-28T05:10:33.799Z,0.22
2022-09-28T05:12:35.356Z,0.63
2022-09-28T05:14:36.928Z,0.40
2022-09-28T05:16:38.555Z,0.85
2022-09-28T05:18:40.381Z,0.10
2022-09-28T05:20:42.254Z,0.03
2022-09-28T05:22:43.893Z,0.93
2022-09-28T05:24:46.488Z,0.57
2022-09-28T05:26:48.124Z,0.93
2022-09-28T05:28:49.759Z,0.20
2022-09-28T05:30:52.212Z,0.25
2022-09-28T05:32:54.031Z,0.30
2022-09-28T05:34:56.329Z,3.40
2022-09-28T05:36:57.922Z,0.55
2022-09-28T05:38:59.543Z,0.20
2022-09-28T05:41:05.704Z,0.80
2022-09-28T05:43:08.119Z,0.70
2022-09-28T05:45:10.338Z,0.60
2022-09-28T05:47:11.878Z,5.03
2022-09-28T05:49:13.798Z,0.30
2022-09-28T05:51:15.446Z,4.75
2022-09-28T05:53:17.018Z,0.47
2022-09-28T05:55:18.607Z,2.47
2022-09-28T05:57:20.151Z,2.47
2022-09-28T05:59:21.680Z,0.30
2022-09-28T06:01:23.291Z,0.70
2022-09-28T06:03:25.153Z,0.75
2022-09-28T06:05:28.181Z,1.70
2022-09-28T06:07:29.828Z,0.32
2022-09-28T06:09:31.437Z,1.55
2022-09-28T06:11:32.963Z,0.80
2022-09-28T06:13:35.000Z,0.10
2022-09-28T06:15:37.080Z,0.13
2022-09-28T06:17:38.747Z,0.20
2022-09-28T06:19:40.293Z,2.83
2022-09-28T06:21:41.822Z,0.77
2022-09-28T06:23:48.183Z,0.10
2022-09-28T06:25:50.790Z,0.00
2022-09-28T06:28:03.278Z,0.08
2022-09-28T06:30:05.360Z,1.08
2022-09-28T06:32:07.671Z,0.75
2022-09-28T06:34:09.591Z,1.48
2022-09-28T06:36:11.205Z,0.22
2022-09-28T06:38:12.831Z,0.20
2022-09-28T06:40:14.978Z,0.88
2022-09-28T06:42:18.720Z,0.20
2022-09-28T06:44:20.317Z,0.10
2022-09-28T06:46:22.071Z,0.15
2022-09-28T06:48:23.650Z,0.22
2022-09-28T06:50:33.447Z,0.55
2022-09-28T06:52:35.211Z,0.03
2022-09-28T06:54:37.000Z,5.47
2022-09-28T06:56:38.610Z,0.10
2022-09-28T06:58:40.139Z,0.40
2022-09-28T07:00:41.830Z,0.40
2022-09-28T07:02:43.781Z,3.47
2022-09-28T07:04:45.357Z,0.17
2022-09-28T07:06:48.074Z,0.20
2022-09-28T07:09:02.443Z,0.17
2022-09-28T07:11:12.435Z,0.00
2022-09-28T07:13:40.053Z,2.25
2022-09-28T07:15:38.160Z,0.05
2022-09-28T07:17:52.269Z,0.00
2022-09-28T07:20:00.328Z,4.20
2022-09-28T07:22:05.535Z,0.55
2022-09-28T07:24:08.330Z,0.10
2022-09-28T07:26:10.035Z,0.10
2022-09-28T07:28:12.016Z,0.38
2022-09-28T07:30:14.222Z,0.10
2022-09-28T07:32:15.883Z,0.10
2022-09-28T07:34:18.749Z,1.30
2022-09-28T07:36:21.041Z,0.25
2022-09-28T07:38:22.971Z,0.35
2022-09-28T07:40:47.510Z,0.20
2022-09-28T07:42:50.613Z,0.98
2022-09-28T07:44:52.513Z,0.00
2022-09-28T07:46:54.399Z,0.10
2022-09-28T07:48:55.984Z,0.57
2022-09-28T07:51:00.191Z,0.85
2022-09-28T07:53:02.162Z,0.52
2022-09-28T07:55:07.194Z,0.17
2022-09-28T07:57:10.039Z,0.03
2022-09-28T07:59:12.024Z,0.00
2022-09-28T08:01:16.906Z,0.10
2022-09-28T08:03:20.127Z,0.00
2022-09-28T08:05:21.671Z,2.55
2022-09-28T08:07:25.635Z,0.25
2022-09-28T08:09:27.300Z,0.10
2022-09-28T08:11:29.379Z,0.00
2022-09-28T08:13:31.157Z,0.15
2022-09-28T08:15:36.913Z,0.00
2022-09-28T08:17:38.596Z,0.00
2022-09-28T08:19:58.867Z,0.00
2022-09-28T08:22:00.399Z,0.82
2022-09-28T08:24:01.993Z,6.78
2022-09-28T08:26:04.325Z,8.90
2022-09-28T08:28:07.374Z,6.00
2022-09-28T08:30:09.497Z,8.40
2022-09-28T08:32:11.198Z,6.00
2022-09-28T08:34:13.729Z,8.07
2022-09-28T08:36:28.324Z,5.55
2022-09-28T08:38:33.181Z,6.95
2022-09-28T08:40:54.012Z,6.90
2022-09-28T08:43:07.698Z,7.18
2022-09-28T08:45:15.307Z,10.57
2022-09-28T08:48:10.146Z,6.53
2022-09-28T08:50:18.358Z,6.35
2022-09-28T08:52:33.362Z,8.43
2022-09-28T08:54:59.981Z,12.20
2022-09-28T08:57:18.108Z,7.35
2022-09-28T08:59:25.752Z,6.35
2022-09-28T09:01:32.840Z,6.90
2022-09-28T09:03:37.722Z,7.40
2022-09-28T09:05:58.042Z,6.72
2022-09-28T09:08:24.145Z,4.65
2022-09-28T09:10:47.113Z,6.25
2022-09-28T09:13:04.496Z,4.30
2022-09-28T09:15:57.049Z,4.63
2022-09-28T09:18:08.547Z,7.90
2022-09-28T09:20:48.446Z,3.03
2022-09-28T09:25:14.787Z,4.97
2022-09-28T09:27:54.878Z,8.18
2022-09-28T09:30:05.088Z,5.20
2022-09-28T09:32:30.904Z,4.75
2022-09-28T09:34:42.441Z,4.60
2022-09-28T09:36:58.289Z,5.18
2022-09-28T09:39:51.353Z,2.95
2022-09-28T09:42:06.057Z,6.07
2022-09-28T09:44:29.704Z,5.03
2022-09-28T09:46:51.838Z,4.40
2022-09-28T09:48:59.752Z,3.70
2022-09-28T09:51:04.802Z,4.25
2022-09-28T09:53:25.766Z,5.82
2022-09-28T09:55:40.266Z,6.10
2022-09-28T09:57:45.695Z,5.13
2022-09-28T09:59:47.624Z,3.85
2022-09-28T10:01:49.394Z,3.65
2022-09-28T10:03:51.390Z,4.43
2022-09-28T10:05:58.163Z,5.18
2022-09-28T10:08:05.283Z,5.15
2022-09-28T10:10:23.236Z,6.40
2022-09-28T10:12:25.664Z,25.75
2022-09-28T10:14:27.330Z,4.57
2022-09-28T10:16:30.785Z,3.83
2022-09-28T10:18:32.581Z,4.32
2022-09-28T10:20:37.710Z,7.40
2022-09-28T10:22:40.198Z,6.03
2022-09-28T10:24:47.789Z,2.78
2022-09-28T10:26:53.361Z,3.17
2022-09-28T10:29:06.318Z,5.07
2022-09-28T10:31:36.016Z,3.70
2022-09-28T10:33:38.959Z,5.38
2022-09-28T10:35:49.268Z,9.40
2022-09-28T10:38:07.444Z,6.72
2022-09-28T10:40:25.561Z,5.10
2022-09-28T10:42:36.223Z,5.53
2022-09-28T10:44:59.457Z,8.55
2022-09-28T10:47:05.881Z,8.05
2022-09-28T10:49:30.646Z,28.17
2022-09-28T10:51:51.778Z,53.97
2022-09-28T10:54:01.872Z,19.02
2022-09-28T10:56:18.864Z,5.38
2022-09-28T10:58:29.669Z,33.17
2022-09-28T11:00:36.224Z,18.65
2022-09-28T11:02:40.056Z,8.30
2022-09-28T11:04:43.375Z,7.43
2022-09-28T11:06:45.011Z,3.55
2022-09-28T11:08:49.450Z,4.50
2022-09-28T11:11:11.009Z,9.18
2022-09-28T11:13:12.709Z,6.15
2022-09-28T11:15:19.615Z,8.07
2022-09-28T11:17:44.209Z,3.65
2022-09-28T11:19:46.043Z,1.85
2022-09-28T11:21:47.638Z,2.35
2022-09-28T11:24:07.559Z,5.13
2022-09-28T11:26:09.641Z,3.53
2022-09-28T11:28:23.649Z,1.98
2022-09-28T11:30:32.937Z,2.35
2022-09-28T11:32:42.792Z,3.80
2022-09-28T11:34:59.270Z,1.73
2022-09-28T11:37:31.348Z,3.45
2022-09-28T11:40:08.592Z,1.00
2022-09-28T11:42:23.591Z,2.20
2022-09-28T11:44:46.632Z,3.67
2022-09-28T11:46:57.246Z,4.03
2022-09-28T11:49:07.271Z,1.50
2022-09-28T11:51:16.094Z,3.17
2022-09-28T11:53:31.633Z,2.70
2022-09-28T11:55:39.476Z,4.40
2022-09-28T11:57:43.552Z,1.80
2022-09-28T12:00:00.699Z,1.20
2022-09-28T12:02:48.792Z,1.88
2022-09-28T12:04:59.481Z,2.53
2022-09-28T12:07:36.141Z,6.32
2022-09-28T12:09:57.445Z,2.80
2022-09-28T12:12:03.657Z,2.08
2022-09-28T12:14:07.441Z,5.13
2022-09-28T12:16:45.697Z,6.20
2022-09-28T12:18:49.144Z,3.20
2022-09-28T12:21:29.916Z,2.90
2022-09-28T12:23:34.361Z,1.70
2022-09-28T12:25:58.258Z,1.40
2022-09-28T12:28:02.664Z,2.65
2022-09-28T12:30:16.174Z,2.88
2022-09-28T12:32:29.309Z,1.55
2022-09-28T12:34:31.191Z,5.35
2022-09-28T12:36:52.011Z,2.78
2022-09-28T12:39:35.484Z,8.02
2022-09-28T12:41:51.141Z,2.47
2022-09-28T12:44:17.631Z,2.30
2022-09-28T12:46:31.121Z,2.45
2022-09-28T12:49:21.667Z,3.13
2022-09-28T12:51:16.712Z,2.03
2022-09-28T12:53:38.879Z,2.20
2022-09-28T12:56:01.554Z,3.92
2022-09-28T12:58:21.687Z,1.77
2022-09-28T13:00:25.346Z,2.47
2022-09-28T13:02:47.591Z,3.33
2022-09-28T13:04:58.421Z,17.13
2022-09-28T13:07:23.181Z,6.38
2022-09-28T13:09:25.878Z,2.83
2022-09-28T13:11:34.284Z,4.30
2022-09-28T13:14:03.082Z,4.85
2022-09-28T13:16:30.688Z,3.95
2022-09-28T13:18:47.247Z,1.50
2022-09-28T13:21:26.404Z,3.90
2022-09-28T13:23:31.473Z,2.50
2022-09-28T13:25:36.251Z,3.10
2022-09-28T13:27:59.969Z,4.45
2022-09-28T13:30:03.690Z,432.23
2022-09-28T13:32:07.526Z,16.08
2022-09-28T13:34:14.515Z,15.15
2022-09-28T13:36:27.906Z,39.25
2022-09-28T13:38:31.082Z,2.95
2022-09-28T13:41:03.822Z,7.13
2022-09-28T13:43:19.692Z,4.20
2022-09-28T13:45:21.342Z,2.03
2022-09-28T13:47:41.452Z,3.92
2022-09-28T13:49:57.680Z,4.32
2022-09-28T13:52:29.774Z,3.25
2022-09-28T13:54:50.948Z,8.73
2022-09-28T13:57:21.563Z,5.15
2022-09-28T13:59:27.303Z,6.10
2022-09-28T14:01:39.979Z,13.15
2022-09-28T14:04:11.472Z,13.90
2022-09-28T14:06:29.373Z,37.88
2022-09-28T14:08:34.951Z,28.98
2022-09-28T14:11:16.199Z,22.75
2022-09-28T14:13:56.982Z,13.00
2022-09-28T14:16:18.540Z,13.93
2022-09-28T14:18:27.985Z,24.27
2022-09-28T14:20:31.471Z,22.17
2022-09-28T14:22:32.954Z,45.40
2022-09-28T14:24:49.734Z,7.80
2022-09-28T14:27:10.286Z,10.15
2022-09-28T14:29:44.294Z,6.47
2022-09-28T14:31:45.968Z,7.68
2022-09-28T14:33:58.596Z,4.28
2022-09-28T14:36:04.025Z,4.07
2022-09-28T14:38:31.955Z,7.40
2022-09-28T14:41:10.545Z,6.00
2022-09-28T14:43:37.047Z,5.97
2022-09-28T14:45:40.223Z,8.95
2022-09-28T14:47:44.309Z,2.83
2022-09-28T14:49:47.700Z,4.07
2022-09-28T14:51:58.050Z,8.55
2022-09-28T14:54:20.077Z,3.95
2022-09-28T14:56:22.303Z,4.22
2022-09-28T14:58:28.925Z,6.57
2022-09-28T15:00:32.043Z,6.13
2022-09-28T15:02:36.327Z,4.35
2022-09-28T15:04:43.429Z,3.65
2022-09-28T15:06:47.213Z,4.10
2022-09-28T15:08:49.279Z,5.07
2022-09-28T15:10:52.235Z,6.70
2022-09-28T15:12:55.441Z,5.43
2022-09-28T15:15:04.705Z,6.53
2022-09-28T15:17:10.062Z,17.10
2022-09-28T15:19:26.460Z,15.27
2022-09-28T15:21:40.203Z,13.88
2022-09-28T15:23:44.092Z,14.23
2022-09-28T15:25:51.848Z,12.85
2022-09-28T15:27:55.995Z,22.30
2022-09-28T15:30:02.676Z,35.70
2022-09-28T15:32:04.766Z,47.95
2022-09-28T15:34:44.906Z,47.30
2022-09-28T15:36:47.028Z,24.30
2022-09-28T15:39:04.168Z,21.08
2022-09-28T15:41:06.979Z,96.93
2022-09-28T15:43:32.951Z,65.05
2022-09-28T15:45:38.702Z,91.88
2022-09-28T15:47:41.334Z,85.95
2022-09-28T15:50:01.938Z,77.70
2022-09-28T15:52:04.036Z,79.15
2022-09-28T15:54:19.524Z,96.40
2022-09-28T15:56:21.322Z,18.98
2022-09-28T15:58:24.347Z,33.75
2022-09-28T16:00:29.091Z,67.35
2022-09-28T16:02:30.729Z,49.67
2022-09-28T16:04:40.376Z,35.75
2022-09-28T16:06:41.932Z,55.45
2022-09-28T16:08:45.010Z,42.10
2022-09-28T16:11:10.908Z,24.38
2022-09-28T16:13:18.700Z,62.90
2022-09-28T16:15:24.186Z,32.45
2022-09-28T16:17:34.973Z,15.20
2022-09-28T16:19:37.437Z,13.95
2022-09-28T16:21:43.625Z,8.02
2022-09-28T16:23:51.392Z,10.10
2022-09-28T16:26:02.142Z,8.35
2022-09-28T16:28:05.357Z,18.95
2022-09-28T16:30:12.881Z,48.53
2022-09-28T16:32:26.678Z,69.72
2022-09-28T16:34:29.107Z,14.18
2022-09-28T16:36:43.488Z,6.13
2022-09-28T16:38:45.714Z,4.07
2022-09-28T16:40:49.753Z,6.72
2022-09-28T16:42:51.809Z,12.38
2022-09-28T16:44:58.440Z,18.50
2022-09-28T16:47:00.935Z,24.85
2022-09-28T16:49:03.035Z,21.55
2022-09-28T16:51:04.660Z,12.85
2022-09-28T16:53:43.448Z,23.80
2022-09-28T16:55:46.258Z,13.60
2022-09-28T16:57:50.650Z,29.92
2022-09-28T16:59:53.105Z,18.13
2022-09-28T17:01:56.641Z,5.00
2022-09-28T17:03:58.375Z,5.28
2022-09-28T17:06:00.361Z,26.30
2022-09-28T17:08:03.741Z,14.65
2022-09-28T17:11:02.649Z,29.02
2022-09-28T17:13:05.583Z,12.18
2022-09-28T17:15:07.549Z,7.93
2022-09-28T17:17:13.703Z,7.10
2022-09-28T17:19:24.083Z,6.03
2022-09-28T17:21:26.184Z,8.00
2022-09-28T17:23:27.720Z,9.85
2022-09-28T17:25:29.290Z,7.63
2022-09-28T17:27:32.448Z,5.82
2022-09-28T17:29:34.051Z,8.32
2022-09-28T17:31:35.758Z,6.53
2022-09-28T17:33:37.461Z,5.65
2022-09-28T17:35:39.834Z,5.00
2022-09-28T17:37:41.922Z,9.23
2022-09-28T17:39:43.528Z,8.05
2022-09-28T17:41:45.300Z,11.27
2022-09-28T17:43:47.275Z,12.07
2022-09-28T17:45:49.247Z,8.48
2022-09-28T17:47:50.807Z,7.93
2022-09-28T17:49:53.868Z,10.63
2022-09-28T17:51:55.471Z,13.02
2022-09-28T17:53:57.674Z,20.42
2022-09-28T17:55:59.236Z,21.23
2022-09-28T17:58:02.036Z,49.55
2022-09-28T18:00:04.156Z,17.50
2022-09-28T18:02:05.802Z,14.55
2022-09-28T18:04:08.948Z,10.30
2022-09-28T18:06:16.980Z,14.63
2022-09-28T18:08:20.466Z,12.75
2022-09-28T18:10:24.126Z,54.67
2022-09-28T18:12:25.928Z,40.83
2022-09-28T18:14:30.820Z,34.58
2022-09-28T18:16:32.412Z,14.52
2022-09-28T18:18:37.024Z,19.50
2022-09-28T18:20:38.995Z,17.10
2022-09-28T18:22:40.966Z,14.05
2022-09-28T18:24:43.054Z,20.13
2022-09-28T18:26:44.735Z,30.33
2022-09-28T18:28:46.613Z,19.10
2022-09-28T18:30:48.437Z,18.15
2022-09-28T18:32:50.613Z,22.38
2022-09-28T18:34:53.859Z,23.55
2022-09-28T18:36:58.475Z,16.75
2022-09-28T18:39:01.298Z,26.80
2022-09-28T18:41:16.913Z,26.73
2022-09-28T18:43:19.074Z,107.78
2022-09-28T18:45:20.692Z,46.50
2022-09-28T18:47:22.572Z,24.67
2022-09-28T18:49:24.657Z,25.13
2022-09-28T18:51:26.534Z,124.72
2022-09-28T18:53:29.082Z,77.00
2022-09-28T18:55:31.368Z,141.15
2022-09-28T18:57:35.966Z,162.18
2022-09-28T18:59:37.645Z,147.20
2022-09-28T19:01:41.738Z,199.73
2022-09-28T19:03:45.113Z,132.27
2022-09-28T19:05:46.778Z,61.85
2022-09-28T19:07:48.631Z,113.13
2022-09-28T19:09:50.746Z,25.98
2022-09-28T19:11:52.379Z,22.92
2022-09-28T19:13:55.135Z,21.05
2022-09-28T19:15:56.816Z,18.40
2022-09-28T19:17:58.480Z,21.10
2022-09-28T19:20:00.122Z,23.98
2022-09-28T19:22:02.759Z,89.72
2022-09-28T19:24:04.736Z,85.82
2022-09-28T19:26:27.567Z,36.05
2022-09-28T19:28:30.941Z,47.83
2022-09-28T19:30:33.114Z,52.63
2022-09-28T19:32:34.688Z,48.40
2022-09-28T19:34:36.292Z,66.45
2022-09-28T19:36:38.286Z,76.13
2022-09-28T19:38:40.811Z,68.78
2022-09-28T19:40:42.403Z,54.78
2022-09-28T19:42:48.156Z,67.78
2022-09-28T19:44:49.894Z,55.97
2022-09-28T19:46:59.536Z,72.25
2022-09-28T19:49:05.292Z,109.30
2022-09-28T19:51:07.378Z,109.75
2022-09-28T19:53:09.006Z,81.13
2022-09-28T19:55:10.586Z,88.18
2022-09-28T19:57:14.131Z,89.75
2022-09-28T19:59:16.080Z,111.45
2022-09-28T20:01:17.798Z,123.68
2022-09-28T20:03:19.593Z,106.43
2022-09-28T20:05:21.169Z,118.47
2022-09-28T20:07:22.711Z,226.23
2022-09-28T20:09:24.252Z,96.07
2022-09-28T20:11:26.271Z,52.95
2022-09-28T20:13:35.766Z,48.35
2022-09-28T20:15:37.488Z,29.85
2022-09-28T20:17:39.114Z,21.40
2022-09-28T20:19:40.719Z,15.07
2022-09-28T20:21:42.286Z,12.68
2022-09-28T20:23:44.917Z,11.38
2022-09-28T20:25:46.445Z,12.65
2022-09-28T20:27:48.105Z,9.13
2022-09-28T20:29:49.689Z,20.98
2022-09-28T20:31:51.906Z,19.02
2022-09-28T20:33:53.596Z,11.55
2022-09-28T20:35:56.046Z,14.88
2022-09-28T20:37:59.230Z,30.80
2022-09-28T20:40:01.921Z,27.05
2022-09-28T20:42:03.493Z,37.67
2022-09-28T20:44:06.533Z,23.75
2022-09-28T20:46:13.561Z,3.90
2022-09-28T20:48:15.459Z,0.40
2022-09-28T20:50:17.040Z,0.55
2022-09-28T20:52:18.813Z,0.20
2022-09-28T20:54:21.177Z,4.95
2022-09-28T20:56:28.312Z,0.63
2022-09-28T20:58:30.181Z,2.08
2022-09-28T21:00:31.743Z,1.23
2022-09-28T21:02:33.361Z,0.47
2022-09-28T21:04:35.794Z,0.05
2022-09-28T21:06:39.318Z,0.00
2022-09-28T21:08:41.672Z,1.20
2022-09-28T21:10:44.581Z,3.45
2022-09-28T21:12:49.451Z,2.72
2022-09-28T21:14:51.229Z,0.50
2022-09-28T21:16:52.967Z,2.05
2022-09-28T21:18:54.511Z,0.15
2022-09-28T21:20:56.383Z,0.55
2022-09-28T21:22:57.931Z,0.15
2022-09-28T21:24:59.489Z,0.30
2022-09-28T21:27:01.059Z,0.22
2022-09-28T21:29:07.700Z,0.20
2022-09-28T21:31:11.277Z,0.08
2022-09-28T21:33:12.919Z,0.10
2022-09-28T21:35:14.440Z,0.40
2022-09-28T21:37:16.376Z,0.10
2022-09-28T21:39:18.422Z,0.35
2022-09-28T21:41:19.968Z,0.25
2022-09-28T21:43:21.594Z,0.45
2022-09-28T21:45:24.962Z,0.55
2022-09-28T21:47:26.568Z,0.10
2022-09-28T21:49:28.183Z,0.30
2022-09-28T21:51:30.116Z,1.55
2022-09-28T21:53:33.697Z,1.35
2022-09-28T21:55:35.242Z,1.23
2022-09-28T21:57:36.763Z,0.15
2022-09-28T21:59:38.293Z,0.40
2022-09-28T22:01:41.839Z,1.02
2022-09-28T22:03:44.877Z,0.55
2022-09-28T22:05:46.482Z,1.35
2022-09-28T22:07:48.055Z,0.10
2022-09-28T22:09:53.395Z,1.10
2022-09-28T22:11:55.192Z,0.13
2022-09-28T22:13:58.888Z,0.38
2022-09-28T22:16:00.646Z,0.10
2022-09-28T22:18:02.225Z,1.02
2022-09-28T22:20:04.156Z,0.47
2022-09-28T22:22:05.729Z,0.20
2022-09-28T22:24:07.536Z,0.08
2022-09-28T22:26:17.748Z,0.30
2022-09-28T22:28:19.321Z,0.00
2022-09-28T22:30:20.869Z,0.45
2022-09-28T22:32:23.844Z,0.05
2022-09-28T22:34:27.421Z,0.55
2022-09-28T22:36:29.207Z,0.00
2022-09-28T22:38:32.101Z,0.10
2022-09-28T22:40:33.697Z,0.70
2022-09-28T22:42:35.277Z,0.65
2022-09-28T22:44:37.792Z,0.43
2022-09-28T22:46:39.706Z,0.22
2022-09-28T22:48:42.552Z,0.40
2022-09-28T22:50:51.373Z,0.10
2022-09-28T22:52:53.372Z,0.00
2022-09-28T22:54:54.888Z,0.20
2022-09-28T22:56:56.459Z,0.93
2022-09-28T22:58:57.980Z,14.75
2022-09-28T23:01:09.785Z,1.27
2022-09-28T23:03:11.593Z,0.70
2022-09-28T23:05:13.610Z,0.63
2022-09-28T23:07:15.190Z,0.93
2022-09-28T23:09:16.720Z,0.40
2022-09-28T23:11:19.042Z,3.40
2022-09-28T23:13:20.594Z,0.95
2022-09-28T23:15:22.664Z,0.40
2022-09-28T23:17:24.179Z,1.98
2022-09-28T23:19:25.742Z,4.18
2022-09-28T23:21:27.948Z,0.47
2022-09-28T23:23:29.680Z,0.10
2022-09-28T23:25:31.226Z,0.10
2022-09-28T23:27:32.748Z,0.47
2022-09-28T23:29:34.371Z,0.52
2022-09-28T23:31:36.023Z,0.00
2022-09-28T23:33:37.819Z,0.30
2022-09-28T23:35:39.749Z,0.10
2022-09-28T23:37:41.265Z,0.00
2022-09-28T23:39:43.708Z,0.10
2022-09-28T23:41:45.240Z,0.47
2022-09-28T23:43:46.827Z,0.20
2022-09-28T23:45:48.386Z,0.10
2022-09-28T23:47:49.898Z,0.10
2022-09-28T23:49:51.448Z,0.00
2022-09-28T23:51:53.060Z,0.10
2022-09-28T23:53:54.649Z,0.00
2022-09-28T23:55:56.223Z,0.00
2022-09-28T23:57:58.772Z,0.10
